UWKD

Kazan International Airport

Kazan, Russian Federation
TAF UWKD 241647Z 2418/2518 30003MPS 4000 BR BKN010 TX14/2512Z TN08/2502Z TEMPO 2418/2504 0500 FG BKN003 FM250400 18007G12MPS 9999 NSW BKN010 TEMPO 2506/2518 18012G18MPS 3100 -SHRA BKN010 BKN015CB
Issued Valid From Valid To
Sep-24 @ 16:47 UTC
(3 hours ago)
Sep-24 @ 18:00 UTC
(2 hours ago)
Sep-25 @ 18:00 UTC
(in 22 hours)
Sep-24 @ 18:00 to Sep-25 @ 04:00
TAF UWKD 241647Z 2418/2518 30003MPS 4000 BR BKN010 TX14/2512Z TN08/2502Z
Wind Visibility Clouds Conditions
300° at 6 knots 4,007 meters
  • Broken at 1,000' AGL
  • Mist
Temporary Sep-24 @ 18:00 to Sep-25 @ 04:00
TEMPO 2418/2504 0500 FG BKN003
Visibility Clouds Conditions
499 meters
  • Broken at 300' AGL
  • Fog
From Sep-25 @ 04:00 to Sep-25 @ 18:00
FM250400 18007G12MPS 9999 NSW BKN010
Wind Visibility Clouds Conditions
180° at 14 knots
 Gusting to 23 knots
10,000+ meters
  • Broken at 1,000' AGL
Temporary Sep-25 @ 06:00 to Sep-25 @ 18:00
TEMPO 2506/2518 18012G18MPS 3100 -SHRA BKN010 BKN015CB
Wind Visibility Clouds Conditions
180° at 23 knots
 Gusting to 35 knots
3,106 meters
  • Broken at 1,000' AGL
  • Broken at 1,500' AGL
  • Light Rain
TAF UWKD 241647Z 2418/2518 30003MPS 4000 BR BKN010 TX14/2512Z TN08/2502Z TEMPO 2418/2504 0500 FG BKN003 FM250400 18007G12MPS 9999 NSW BKN010 TEMPO 2506/2518 18012G18MPS 3100 -SHRA BKN010 BKN015CB
Issued Sep-24 @ 16:47 UTC
(3 hours ago)
Valid From Sep-24 @ 18:00 UTC
(2 hours ago)
Valid To Sep-25 @ 18:00 UTC
(in 22 hours)
Sep-24 @ 18:00 - Sep-25 @ 04:00
Wind Visibility
300° at 6 knots 4,007 meters
Clouds
  • Broken at 1,000' AGL
Conditions
  • Mist
Temporary Sep-24 @ 18:00 - Sep-25 @ 04:00
Clouds
  • Broken at 300' AGL
Conditions
  • Fog
From Sep-25 @ 04:00 - Sep-25 @ 18:00
Wind Visibility
180° at 14 knots
 Gusting to 23 knots
10,000+ meters
Clouds
  • Broken at 1,000' AGL
Conditions
Temporary Sep-25 @ 06:00 - Sep-25 @ 18:00
Wind Visibility
180° at 23 knots
 Gusting to 35 knots
3,106 meters
Clouds
  • Broken at 1,000' AGL
  • Broken at 1,500' AGL
Conditions
  • Light Rain